Time;durP1;ratioP1;P1;durP2;ratioP2;P2;SDS_P1;SDS_P2;PMS_P1;PMS_P2;Temp;Humidity;BMP_temperature;BMP_pressure;BME280_temperature;BME280_humidity;BME280_pressure;Samples;Min_cycle;Max_cycle;Signal;HPM_P1;HPM_P2
2022/07/25 00:01:42;;;;;;;8.20;6.88;;;21.10;99.90;;;;;;5071091;28;20223;-67
2022/07/25 00:04:11;;;;;;;9.85;7.07;;;21.00;99.90;;;;;;5074188;28;20229;-67
2022/07/25 00:06:39;;;;;;;8.65;6.53;;;20.90;99.90;;;;;;5069860;28;20310;-67
2022/07/25 00:09:06;;;;;;;8.18;6.68;;;20.80;99.90;;;;;;5073447;28;20198;-67
2022/07/25 00:11:33;;;;;;;11.13;7.10;;;20.80;99.90;;;;;;5065863;28;20217;-67
2022/07/25 00:13:59;;;;;;;10.70;7.60;;;20.90;99.90;;;;;;5070389;28;20204;-67
2022/07/25 00:16:26;;;;;;;9.05;7.03;;;21.00;99.90;;;;;;5064938;28;20209;-67
2022/07/25 00:18:52;;;;;;;10.43;7.57;;;21.00;99.90;;;;;;5075032;28;20202;-67
2022/07/25 00:21:19;;;;;;;10.10;7.00;;;21.00;99.90;;;;;;5071740;28;20236;-67
2022/07/25 00:23:46;;;;;;;10.85;7.03;;;20.90;99.90;;;;;;5072593;28;20880;-67
2022/07/25 00:26:13;;;;;;;11.27;7.57;;;20.90;99.90;;;;;;5065702;28;20222;-67
2022/07/25 00:28:40;;;;;;;9.70;6.83;;;20.90;99.90;;;;;;5066831;28;20329;-67
2022/07/25 00:31:06;;;;;;;8.90;6.97;;;20.90;99.90;;;;;;5070993;28;20210;-67
2022/07/25 00:33:33;;;;;;;9.05;6.63;;;20.80;99.90;;;;;;5070667;28;20194;-67
2022/07/25 00:36:00;;;;;;;9.50;7.20;;;20.70;99.90;;;;;;5075536;28;20201;-67
2022/07/25 00:38:26;;;;;;;9.80;7.40;;;20.70;99.90;;;;;;5068103;28;20209;-67
2022/07/25 00:40:53;;;;;;;9.13;7.50;;;20.80;99.90;;;;;;5071331;28;20215;-67
2022/07/25 00:43:21;;;;;;;10.53;7.37;;;21.00;99.90;;;;;;5068546;28;20220;-66
2022/07/25 00:45:48;;;;;;;8.97;6.90;;;21.00;99.90;;;;;;5071274;28;20854;-67
2022/07/25 00:48:15;;;;;;;11.83;7.70;;;21.00;99.90;;;;;;5071098;28;20687;-67
2022/07/25 00:50:41;;;;;;;9.60;7.27;;;21.10;99.90;;;;;;5071381;28;20210;-67
2022/07/25 00:53:08;;;;;;;12.87;7.53;;;21.00;99.90;;;;;;5063937;28;20210;-67
2022/07/25 00:55:35;;;;;;;10.47;7.40;;;20.90;99.90;;;;;;5064983;28;20205;-67
2022/07/25 00:58:02;;;;;;;11.53;7.30;;;21.00;99.90;;;;;;5069929;28;20238;-67
2022/07/25 01:00:29;;;;;;;7.50;6.30;;;20.90;99.90;;;;;;5068362;28;20218;-67
2022/07/25 01:02:56;;;;;;;9.13;7.03;;;20.70;99.90;;;;;;5073108;28;20508;-67
2022/07/25 01:05:23;;;;;;;8.37;6.60;;;20.50;99.90;;;;;;5069964;28;20313;-67
2022/07/25 01:07:51;;;;;;;9.77;7.00;;;20.50;99.90;;;;;;5071942;28;20198;-67
2022/07/25 01:10:17;;;;;;;10.13;7.40;;;20.40;99.90;;;;;;5071281;28;20220;-67
2022/07/25 01:12:47;;;;;;;9.97;7.00;;;20.60;99.90;;;;;;5072143;28;20205;-67
2022/07/25 01:15:16;;;;;;;8.47;6.87;;;20.70;99.90;;;;;;5069153;28;20273;-67
2022/07/25 01:17:43;;;;;;;9.13;7.40;;;20.50;99.90;;;;;;5067056;28;20210;-67
2022/07/25 01:20:20;;;;;;;10.90;6.70;;;20.30;99.90;;;;;;5068651;28;20206;-67
2022/07/25 01:22:47;;;;;;;8.33;6.90;;;20.40;99.90;;;;;;5070458;28;20197;-67
2022/07/25 01:25:15;;;;;;;9.87;7.47;;;20.60;99.90;;;;;;5062590;28;20578;-67
2022/07/25 01:27:42;;;;;;;11.03;7.17;;;20.70;99.90;;;;;;5072560;28;20185;-67
2022/07/25 01:30:10;;;;;;;9.87;6.83;;;20.70;99.90;;;;;;5069182;28;20228;-67
2022/07/25 01:32:37;;;;;;;10.20;7.33;;;20.60;99.90;;;;;;5066671;28;20197;-67
2022/07/25 01:35:05;;;;;;;9.80;7.20;;;20.50;99.90;;;;;;5065626;28;20195;-67
2022/07/25 01:37:32;;;;;;;9.57;7.00;;;20.50;99.90;;;;;;5070619;28;20194;-67
2022/07/25 01:39:59;;;;;;;9.70;7.00;;;20.50;99.90;;;;;;5070936;28;20202;-67
2022/07/25 01:42:27;;;;;;;9.03;7.00;;;20.50;99.90;;;;;;5066969;28;20194;-67
2022/07/25 01:44:54;;;;;;;9.87;7.63;;;20.50;99.90;;;;;;5069029;28;20205;-67
2022/07/25 01:47:21;;;;;;;9.07;7.10;;;20.50;99.90;;;;;;5068191;28;20226;-67
2022/07/25 01:49:48;;;;;;;8.77;7.10;;;20.50;99.90;;;;;;5063032;28;20206;-68
2022/07/25 01:52:14;;;;;;;9.23;7.03;;;20.40;99.90;;;;;;5062370;28;20201;-67
2022/07/25 01:54:41;;;;;;;10.10;7.07;;;20.30;99.90;;;;;;5053709;28;20197;-67
2022/07/25 01:57:10;;;;;;;10.57;6.97;;;20.20;99.90;;;;;;5067454;28;20249;-67
2022/07/25 01:59:39;;;;;;;9.10;7.40;;;19.90;99.90;;;;;;5071634;28;20229;-67
2022/07/25 02:02:08;;;;;;;9.10;7.00;;;19.80;99.90;;;;;;5066596;28;20229;-67
2022/07/25 02:04:35;;;;;;;10.63;7.73;;;19.70;99.90;;;;;;5072733;28;20197;-67
2022/07/25 02:07:03;;;;;;;10.50;7.03;;;19.70;99.90;;;;;;5068554;28;20253;-67
2022/07/25 02:09:31;;;;;;;10.00;7.53;;;19.70;99.90;;;;;;5067021;28;20682;-67
2022/07/25 02:11:58;;;;;;;8.43;6.57;;;19.70;99.90;;;;;;5073461;28;20209;-67
2022/07/25 02:14:25;;;;;;;9.00;6.97;;;19.70;99.90;;;;;;5070685;28;20190;-67
2022/07/25 02:16:52;;;;;;;10.47;7.33;;;19.80;99.90;;;;;;5063774;28;20573;-67
2022/07/25 02:19:19;;;;;;;9.07;6.93;;;20.00;99.90;;;;;;5073752;28;20681;-67
2022/07/25 02:21:46;;;;;;;10.13;7.77;;;19.90;99.90;;;;;;5068037;28;20217;-67
2022/07/25 02:24:12;;;;;;;9.33;6.90;;;19.80;99.90;;;;;;5067903;28;20293;-67
2022/07/25 02:26:39;;;;;;;8.57;6.57;;;19.70;99.90;;;;;;5065799;28;20229;-67
2022/07/25 02:29:06;;;;;;;10.20;7.10;;;19.70;99.90;;;;;;5064843;28;20202;-67
2022/07/25 02:31:32;;;;;;;9.60;7.07;;;19.60;99.90;;;;;;5069109;28;20218;-67
2022/07/25 02:33:59;;;;;;;9.57;6.53;;;19.50;99.90;;;;;;5067051;28;20595;-67
2022/07/25 02:36:26;;;;;;;13.17;6.83;;;19.40;99.90;;;;;;5070835;28;20323;-67
2022/07/25 02:38:52;;;;;;;10.03;7.23;;;19.30;99.90;;;;;;5072295;28;20244;-66
2022/07/25 02:41:19;;;;;;;15.73;7.67;;;19.30;99.90;;;;;;5070019;28;20864;-67
2022/07/25 02:43:45;;;;;;;11.80;7.97;;;19.40;99.90;;;;;;5067337;28;20216;-67
2022/07/25 02:46:12;;;;;;;10.37;7.40;;;19.40;99.90;;;;;;5068874;28;20225;-67
2022/07/25 02:48:39;;;;;;;9.00;6.97;;;19.40;99.90;;;;;;5067173;28;20209;-67
2022/07/25 02:51:06;;;;;;;9.80;7.23;;;19.60;99.90;;;;;;5065471;28;20222;-67
2022/07/25 02:53:32;;;;;;;9.50;6.87;;;19.50;99.90;;;;;;5064395;28;20432;-67
2022/07/25 02:56:19;;;;;;;8.50;6.80;;;19.40;99.90;;;;;;5066557;28;20740;-67
2022/07/25 02:58:47;;;;;;;10.70;7.00;;;19.30;99.90;;;;;;5066609;28;20203;-67
2022/07/25 03:01:14;;;;;;;14.60;7.70;;;19.10;99.90;;;;;;5068469;28;20233;-67
2022/07/25 03:03:40;;;;;;;10.37;7.77;;;19.10;99.90;;;;;;5075440;28;20281;-67
2022/07/25 03:06:07;;;;;;;9.73;7.40;;;19.40;99.90;;;;;;5073717;28;20648;-66
2022/07/25 03:08:34;;;;;;;10.20;7.70;;;19.50;99.90;;;;;;5073699;28;20204;-66
2022/07/25 03:11:02;;;;;;;10.33;7.97;;;19.40;99.90;;;;;;5069851;28;20229;-66
2022/07/25 03:13:28;;;;;;;9.50;7.40;;;19.30;99.90;;;;;;5069910;28;20195;-67
2022/07/25 03:15:55;;;;;;;10.30;7.97;;;19.30;99.90;;;;;;5072495;28;20202;-67
2022/07/25 03:18:22;;;;;;;8.93;7.03;;;19.30;99.90;;;;;;5070001;28;20689;-67
2022/07/25 03:20:48;;;;;;;11.13;7.80;;;19.20;99.90;;;;;;5071312;28;20222;-67
2022/07/25 03:23:15;;;;;;;12.43;7.90;;;19.10;99.90;;;;;;5079438;28;20218;-67
2022/07/25 03:25:42;;;;;;;10.13;7.27;;;19.10;99.90;;;;;;5073332;28;20197;-67
2022/07/25 03:28:08;;;;;;;12.00;8.23;;;19.00;99.90;;;;;;5075261;28;20194;-67
2022/07/25 03:30:35;;;;;;;13.03;8.30;;;19.00;99.90;;;;;;5068529;28;20657;-67
2022/07/25 03:33:02;;;;;;;11.73;8.43;;;19.00;99.90;;;;;;5072741;28;20202;-67
2022/07/25 03:35:28;;;;;;;12.10;8.40;;;19.10;99.90;;;;;;5070149;28;20656;-67
2022/07/25 03:37:55;;;;;;;13.73;9.00;;;19.10;99.90;;;;;;5072010;28;20584;-66
2022/07/25 03:40:22;;;;;;;13.10;8.43;;;18.90;99.90;;;;;;5067486;28;21592;-66
2022/07/25 03:42:48;;;;;;;11.50;8.70;;;18.90;99.90;;;;;;5068449;28;20247;-66
2022/07/25 03:45:16;;;;;;;12.60;8.83;;;18.90;99.90;;;;;;5069272;28;20663;-67
2022/07/25 03:47:43;;;;;;;13.13;8.20;;;19.10;99.90;;;;;;5072193;28;20218;-67
2022/07/25 03:50:10;;;;;;;10.60;7.80;;;19.00;99.90;;;;;;5073970;28;20205;-67
2022/07/25 03:52:37;;;;;;;10.50;8.00;;;18.90;99.90;;;;;;5075598;28;20201;-66
2022/07/25 03:55:08;;;;;;;11.07;8.17;;;18.90;99.90;;;;;;5072022;28;20548;-67
2022/07/25 03:57:35;;;;;;;12.00;8.00;;;19.00;99.90;;;;;;5069412;28;20739;-67
2022/07/25 04:00:07;;;;;;;11.03;7.23;;;19.20;99.90;;;;;;5071284;28;20205;-67
2022/07/25 04:02:36;;;;;;;10.30;7.63;;;19.10;99.90;;;;;;5067281;28;20213;-67
2022/07/25 04:05:07;;;;;;;10.93;8.23;;;19.00;99.90;;;;;;5071559;28;20196;-67
2022/07/25 04:07:35;;;;;;;11.30;8.13;;;18.90;99.90;;;;;;5070674;28;20218;-67
2022/07/25 04:10:03;;;;;;;10.17;8.03;;;19.00;99.90;;;;;;5066652;28;20206;-67
2022/07/25 04:12:30;;;;;;;10.33;8.10;;;19.00;99.90;;;;;;5071323;28;20716;-67
2022/07/25 04:14:57;;;;;;;12.07;7.93;;;19.00;99.90;;;;;;5073149;28;20536;-67
2022/07/25 04:17:23;;;;;;;11.30;8.00;;;19.10;99.90;;;;;;5065995;28;20590;-67
2022/07/25 04:19:51;;;;;;;11.33;7.93;;;19.20;99.90;;;;;;5072876;28;20251;-66
2022/07/25 04:22:18;;;;;;;12.00;8.00;;;19.20;99.90;;;;;;5066432;28;20198;-67
2022/07/25 04:24:44;;;;;;;10.40;7.97;;;19.20;99.90;;;;;;5074452;28;20851;-67
2022/07/25 04:27:11;;;;;;;12.80;8.17;;;19.30;99.90;;;;;;5066669;28;20221;-67
2022/07/25 04:29:38;;;;;;;11.23;7.90;;;19.30;99.90;;;;;;5068084;28;20595;-67
2022/07/25 04:32:05;;;;;;;13.13;7.93;;;19.40;99.90;;;;;;5071666;28;20576;-67
2022/07/25 04:34:32;;;;;;;13.73;7.90;;;19.50;99.90;;;;;;5057166;28;20218;-66
2022/07/25 04:36:59;;;;;;;9.83;7.70;;;19.50;99.90;;;;;;5056922;28;20572;-67
2022/07/25 04:39:25;;;;;;;11.63;8.00;;;19.50;99.90;;;;;;5060534;28;20692;-67
2022/07/25 04:41:52;;;;;;;10.77;8.27;;;19.60;99.90;;;;;;5057115;28;20607;-67
2022/07/25 04:44:18;;;;;;;8.47;7.10;;;19.60;99.90;;;;;;5059651;28;20944;-67
2022/07/25 04:46:45;;;;;;;12.67;7.30;;;19.60;99.90;;;;;;5061646;28;20221;-67
2022/07/25 04:49:12;;;;;;;12.50;8.53;;;19.60;99.90;;;;;;5058877;28;20191;-67
2022/07/25 04:51:39;;;;;;;12.47;7.73;;;19.70;99.90;;;;;;5042221;28;20214;-66
2022/07/25 04:54:06;;;;;;;13.33;8.50;;;19.80;99.90;;;;;;5035654;28;20630;-67
2022/07/25 04:56:33;;;;;;;13.50;8.60;;;19.70;99.90;;;;;;5042237;28;20203;-67
2022/07/25 04:58:59;;;;;;;12.03;8.13;;;19.70;99.90;;;;;;5043290;28;20675;-67
2022/07/25 05:01:32;;;;;;;11.70;7.97;;;19.80;99.90;;;;;;5034855;28;20230;-67
2022/07/25 05:03:59;;;;;;;10.40;7.83;;;19.90;99.90;;;;;;5041966;28;20222;-67
2022/07/25 05:06:26;;;;;;;11.20;8.00;;;20.00;99.90;;;;;;5050299;28;20207;-66
2022/07/25 05:08:53;;;;;;;11.97;7.70;;;20.20;99.90;;;;;;5052791;28;20565;-66
2022/07/25 05:11:19;;;;;;;11.40;8.67;;;20.30;99.90;;;;;;5046923;28;20213;-67
2022/07/25 05:13:46;;;;;;;9.83;7.77;;;20.30;99.90;;;;;;5048417;28;20233;-67
2022/07/25 05:16:13;;;;;;;10.47;7.67;;;20.30;99.90;;;;;;5047702;28;20206;-66
2022/07/25 05:18:39;;;;;;;14.17;9.33;;;20.30;99.90;;;;;;5045610;28;20838;-66
2022/07/25 05:21:10;;;;;;;12.70;8.67;;;20.30;99.90;;;;;;5050124;28;20256;-67
2022/07/25 05:23:36;;;;;;;10.10;7.40;;;20.50;99.90;;;;;;5048578;28;20256;-66
2022/07/25 05:26:03;;;;;;;10.33;8.00;;;20.60;99.90;;;;;;5045127;28;20206;-66
2022/07/25 05:28:30;;;;;;;11.50;7.90;;;20.70;99.90;;;;;;5054368;28;20199;-66
2022/07/25 05:30:56;;;;;;;13.23;7.57;;;20.60;99.90;;;;;;5048922;28;20310;-66
2022/07/25 05:33:23;;;;;;;11.00;7.17;;;20.70;99.90;;;;;;5041632;28;20567;-66
2022/07/25 05:35:50;;;;;;;9.70;7.90;;;20.70;99.90;;;;;;5040597;28;20662;-66
2022/07/25 05:38:17;;;;;;;12.57;8.93;;;20.80;99.90;;;;;;5045163;28;20463;-66
2022/07/25 05:40:44;;;;;;;12.75;8.15;;;20.90;99.90;;;;;;5036512;28;20712;-66
2022/07/25 05:43:11;;;;;;;9.60;7.47;;;21.00;99.90;;;;;;5042989;28;20607;-65
2022/07/25 05:45:37;;;;;;;15.77;8.70;;;21.00;99.90;;;;;;5043115;28;20202;-66
2022/07/25 05:48:05;;;;;;;11.57;8.27;;;21.20;99.90;;;;;;5043966;28;20233;-66
2022/07/25 05:50:32;;;;;;;13.10;7.97;;;21.40;99.90;;;;;;5037468;28;20219;-65
2022/07/25 05:52:58;;;;;;;12.77;8.80;;;21.50;99.90;;;;;;5043964;28;20199;-66
2022/07/25 05:55:25;;;;;;;12.48;8.40;;;21.50;99.90;;;;;;5044796;28;20667;-65
2022/07/25 05:57:51;;;;;;;13.70;8.77;;;21.60;99.90;;;;;;5041583;28;20199;-66
2022/07/25 06:00:18;;;;;;;13.15;8.18;;;21.60;99.90;;;;;;5039963;28;20600;-66
2022/07/25 06:02:45;;;;;;;11.63;8.52;;;21.80;99.90;;;;;;5040307;28;20199;-67
2022/07/25 06:05:12;;;;;;;14.45;8.65;;;22.00;99.90;;;;;;5047595;28;20197;-67
2022/07/25 06:07:38;;;;;;;15.85;8.43;;;22.00;99.90;;;;;;5037674;28;20225;-67
2022/07/25 06:10:05;;;;;;;9.85;7.80;;;22.00;99.90;;;;;;5032556;28;20222;-67
2022/07/25 06:12:32;;;;;;;9.02;7.43;;;22.10;99.90;;;;;;5029593;28;20203;-66
2022/07/25 06:15:03;;;;;;;10.55;7.50;;;22.20;99.90;;;;;;5039212;28;20674;-67
2022/07/25 06:17:29;;;;;;;8.60;6.88;;;22.40;99.90;;;;;;5031709;28;20220;-66
2022/07/25 06:19:58;;;;;;;8.90;7.30;;;22.50;99.90;;;;;;5047820;28;20220;-66
2022/07/25 06:22:25;;;;;;;10.55;7.32;;;22.60;99.90;;;;;;5048154;28;20290;-67
2022/07/25 06:24:51;;;;;;;10.27;7.45;;;22.80;99.90;;;;;;5046078;28;20716;-65
2022/07/25 06:27:18;;;;;;;11.13;7.15;;;23.00;99.90;;;;;;5041737;28;20690;-66
2022/07/25 06:29:48;;;;;;;9.32;7.28;;;23.00;99.90;;;;;;5039547;28;20670;-65
2022/07/25 06:32:15;;;;;;;8.75;6.53;;;23.10;99.90;;;;;;5038525;28;20202;-67
2022/07/25 06:34:42;;;;;;;10.35;6.93;;;23.10;99.90;;;;;;5055228;28;20205;-68
2022/07/25 06:37:09;;;;;;;10.75;7.95;;;23.20;99.90;;;;;;5035565;28;20195;-67
2022/07/25 06:39:36;;;;;;;9.07;7.20;;;23.30;99.90;;;;;;5033390;28;20243;-66
2022/07/25 06:42:03;;;;;;;8.80;6.75;;;23.40;99.90;;;;;;5039057;28;20234;-67
2022/07/25 06:44:33;;;;;;;9.77;7.25;;;23.40;99.90;;;;;;5043815;28;20202;-67
2022/07/25 06:47:01;;;;;;;9.05;6.90;;;23.40;99.90;;;;;;5036101;28;20218;-67
2022/07/25 06:49:28;;;;;;;10.95;7.25;;;23.50;99.90;;;;;;5041283;28;20199;-65
2022/07/25 06:51:55;;;;;;;10.23;7.18;;;23.50;99.90;;;;;;5048643;28;20215;-66
2022/07/25 06:54:22;;;;;;;9.38;7.53;;;23.70;99.90;;;;;;5047647;28;20194;-66
2022/07/25 06:56:48;;;;;;;10.65;8.13;;;23.70;99.90;;;;;;5040845;28;20198;-66
2022/07/25 06:59:15;;;;;;;10.68;7.53;;;23.80;99.90;;;;;;5047559;28;20406;-66
2022/07/25 07:01:41;;;;;;;13.45;8.32;;;23.90;99.90;;;;;;5028720;28;20230;-66
2022/07/25 07:04:11;;;;;;;8.88;7.80;;;24.00;99.90;;;;;;5037841;28;20723;-66
2022/07/25 07:06:38;;;;;;;11.57;8.32;;;24.30;99.90;;;;;;5040217;28;20682;-66
2022/07/25 07:09:05;;;;;;;11.02;7.68;;;24.60;99.90;;;;;;5040159;28;20191;-66
2022/07/25 07:11:33;;;;;;;12.45;7.30;;;25.40;99.90;;;;;;5042326;28;20221;-66
2022/07/25 07:14:04;;;;;;;11.93;7.35;;;26.50;99.90;;;;;;5039930;28;20667;-66
2022/07/25 07:16:31;;;;;;;10.98;6.93;;;27.30;99.90;;;;;;5037402;28;20198;-66
2022/07/25 07:18:58;;;;;;;11.80;7.95;;;28.10;99.90;;;;;;5032716;28;20610;-69
2022/07/25 07:21:25;;;;;;;11.68;7.32;;;28.40;99.90;;;;;;5032641;28;20472;-68
2022/07/25 07:23:51;;;;;;;10.98;7.75;;;29.10;99.90;;;;;;5038270;28;20199;-68
2022/07/25 07:26:20;;;;;;;9.93;7.50;;;29.30;99.90;;;;;;5042847;28;20195;-69
2022/07/25 07:28:47;;;;;;;10.52;7.38;;;29.40;99.90;;;;;;5034021;28;20670;-68
2022/07/25 07:31:16;;;;;;;11.60;7.88;;;29.50;99.90;;;;;;5033618;28;20218;-68
2022/07/25 07:33:44;;;;;;;8.63;7.07;;;29.30;99.90;;;;;;5032193;28;20200;-69
2022/07/25 07:36:11;;;;;;;10.82;8.20;;;29.50;99.90;;;;;;5028761;28;20550;-68
2022/07/25 07:38:38;;;;;;;11.27;7.13;;;29.80;99.90;;;;;;5037908;28;20195;-68
2022/07/25 07:41:05;;;;;;;10.00;7.72;;;30.20;99.90;;;;;;5034263;28;20210;-68
2022/07/25 07:43:32;;;;;;;10.55;7.85;;;30.60;99.90;;;;;;5029776;28;20226;-69
2022/07/25 07:45:59;;;;;;;13.48;7.88;;;30.70;99.90;;;;;;5032306;28;20196;-68
2022/07/25 07:48:28;;;;;;;11.27;7.90;;;30.30;99.90;;;;;;5036968;28;20222;-69
2022/07/25 07:50:56;;;;;;;10.30;7.63;;;30.30;99.90;;;;;;5033553;28;20233;-67
2022/07/25 07:55:42;;;;;;;9.70;7.78;;;30.30;99.90;;;;;;5035839;28;20669;-68
2022/07/25 07:56:10;;;;;;;10.90;7.70;;;30.20;99.90;;;;;;5034822;28;20201;-68
2022/07/25 07:58:37;;;;;;;13.15;8.32;;;30.20;99.90;;;;;;5034954;28;20207;-68
2022/07/25 08:01:04;;;;;;;12.30;8.38;;;30.30;99.90;;;;;;5038914;28;20711;-68
2022/07/25 08:03:31;;;;;;;13.82;8.57;;;30.20;99.90;;;;;;5042592;28;20206;-68
2022/07/25 08:05:58;;;;;;;13.05;8.10;;;30.00;99.90;;;;;;5036299;28;20217;-67
2022/07/25 08:08:24;;;;;;;10.68;8.48;;;29.70;99.90;;;;;;5044663;28;20699;-68
2022/07/25 08:10:57;;;;;;;8.75;7.63;;;29.60;99.90;;;;;;5039978;28;20256;-68
2022/07/25 08:13:27;;;;;;;13.63;8.48;;;29.70;99.90;;;;;;5038488;28;20200;-68
2022/07/25 08:15:57;;;;;;;11.02;8.00;;;30.00;99.90;;;;;;5042994;28;20302;-67
2022/07/25 08:18:25;;;;;;;9.50;7.47;;;30.20;99.90;;;;;;5039302;28;20219;-67
2022/07/25 08:20:52;;;;;;;10.35;8.13;;;30.40;99.90;;;;;;5047289;28;20219;-68
2022/07/25 08:23:19;;;;;;;14.20;7.72;;;30.50;99.90;;;;;;5035487;28;20199;-68
2022/07/25 08:25:46;;;;;;;10.45;8.57;;;30.60;99.90;;;;;;5033051;28;20198;-68
2022/07/25 08:28:13;;;;;;;11.00;8.20;;;30.60;99.90;;;;;;5029438;28;20282;-68
2022/07/25 08:30:40;;;;;;;10.30;8.20;;;30.60;99.90;;;;;;5039435;28;20214;-68
2022/07/25 08:33:11;;;;;;;11.38;8.30;;;30.60;99.90;;;;;;5033783;28;20191;-68
2022/07/25 08:35:39;;;;;;;12.10;8.82;;;30.70;99.90;;;;;;5044160;28;20207;-68
2022/07/25 08:38:10;;;;;;;9.70;7.80;;;30.80;99.90;;;;;;5034978;28;20203;-68
2022/07/25 08:40:37;;;;;;;11.70;8.57;;;31.00;99.90;;;;;;5033130;28;20230;-68
2022/07/25 08:43:04;;;;;;;11.88;8.23;;;31.10;99.90;;;;;;5036946;28;20202;-69
2022/07/25 08:45:32;;;;;;;11.90;8.63;;;31.20;99.90;;;;;;5029000;28;20196;-68
2022/07/25 08:47:58;;;;;;;13.13;8.70;;;31.20;99.90;;;;;;5031920;28;20773;-66
2022/07/25 08:50:27;;;;;;;10.82;8.63;;;31.10;99.90;;;;;;5033079;28;20214;-66
2022/07/25 08:52:54;;;;;;;10.98;8.07;;;31.30;99.90;;;;;;5042229;28;20283;-66
2022/07/25 08:55:43;;;;;;;8.98;8.07;;;31.50;99.90;;;;;;5048618;28;20194;-66
2022/07/25 08:58:13;;;;;;;12.75;9.18;;;31.70;99.90;;;;;;5036485;28;20191;-67
2022/07/25 09:00:40;;;;;;;11.60;8.77;;;31.90;99.90;;;;;;5043078;28;20222;-66
2022/07/25 09:03:08;;;;;;;11.35;8.73;;;32.00;99.90;;;;;;5042028;28;20206;-66
2022/07/25 09:05:36;;;;;;;10.30;8.30;;;32.10;99.90;;;;;;5035901;28;20636;-66
2022/07/25 09:08:16;;;;;;;14.50;8.57;;;32.40;99.90;;;;;;5037426;28;20215;-66
2022/07/25 09:10:50;;;;;;;12.90;8.40;;;32.50;99.90;;;;;;5029527;28;20222;-67
2022/07/25 09:13:20;;;;;;;8.93;7.75;;;32.80;99.90;;;;;;5041047;28;20202;-66
2022/07/25 09:15:52;;;;;;;12.15;8.25;;;33.00;99.90;;;;;;5043411;28;20199;-66
2022/07/25 09:18:24;;;;;;;11.05;8.50;;;33.30;99.90;;;;;;5036067;28;20228;-66
2022/07/25 09:20:57;;;;;;;11.27;8.18;;;33.50;99.90;;;;;;5038387;28;20234;-66
2022/07/25 09:23:27;;;;;;;9.63;7.88;;;33.60;99.90;;;;;;5037631;28;20695;-66
2022/07/25 09:26:20;;;;;;;10.57;7.45;;;33.80;99.90;;;;;;5033021;28;20203;-66
2022/07/25 09:28:51;;;;;;;9.25;8.00;;;34.30;99.90;;;;;;5033560;28;20223;-66
2022/07/25 09:31:17;;;;;;;11.13;7.80;;;34.70;99.90;;;;;;5028898;28;20215;-66
2022/07/25 09:33:55;;;;;;;10.13;8.10;;;35.00;99.60;;;;;;5030346;28;20200;-66
2022/07/25 09:36:22;;;;;;;10.18;7.80;;;35.20;99.50;;;;;;5031382;28;20187;-66
2022/07/25 09:38:53;;;;;;;8.57;7.68;;;35.50;98.50;;;;;;5032420;28;20282;-66
2022/07/25 09:41:20;;;;;;;10.50;7.15;;;35.20;98.00;;;;;;5032966;28;20218;-66
2022/07/25 09:43:47;;;;;;;9.55;7.45;;;35.20;98.60;;;;;;5037760;28;20234;-66
2022/07/25 09:46:14;;;;;;;10.70;6.95;;;35.10;98.50;;;;;;5032290;28;20195;-66
2022/07/25 09:48:44;;;;;;;10.27;7.68;;;35.30;97.90;;;;;;5033670;28;20251;-66
2022/07/25 09:51:11;;;;;;;9.10;7.20;;;34.90;97.70;;;;;;5032463;28;20211;-66
2022/07/25 09:53:39;;;;;;;7.88;7.07;;;35.00;98.10;;;;;;5033610;28;20195;-66
2022/07/25 09:56:07;;;;;;;8.82;7.57;;;35.10;97.80;;;;;;5036359;28;20572;-66
2022/07/25 09:58:34;;;;;;;11.88;7.00;;;35.40;97.70;;;;;;5029680;28;20229;-66
2022/07/25 10:01:05;;;;;;;10.30;6.70;;;35.50;97.30;;;;;;5027299;28;20241;-66
2022/07/25 10:03:49;;;;;;;9.75;7.38;;;35.70;97.20;;;;;;5028360;28;20206;-65
2022/07/25 10:06:51;;;;;;;10.05;7.30;;;35.90;96.90;;;;;;5033814;28;20684;-68
2022/07/25 10:09:18;;;;;;;9.82;6.72;;;35.90;96.70;;;;;;5035687;28;20701;-67
2022/07/25 10:12:08;;;;;;;8.25;6.88;;;35.80;97.00;;;;;;5034251;28;20219;-67
2022/07/25 10:14:35;;;;;;;7.55;6.82;;;35.90;96.80;;;;;;5039349;28;20201;-67
2022/07/25 10:17:03;;;;;;;8.07;6.68;;;35.60;96.10;;;;;;5033266;28;20370;-68
2022/07/25 10:19:42;;;;;;;8.40;6.32;;;35.60;96.50;;;;;;5034291;28;20203;-68
2022/07/25 10:22:17;;;;;;;10.80;6.95;;;35.90;96.40;;;;;;5035039;28;20206;-68
2022/07/25 10:25:22;;;;;;;8.35;6.50;;;36.00;95.80;;;;;;5044566;28;20211;-67
2022/07/25 10:27:57;;;;;;;9.75;7.25;;;36.00;96.10;;;;;;5044611;28;20302;-68
2022/07/25 10:30:26;;;;;;;7.75;6.95;;;36.10;96.60;;;;;;5039379;28;20222;-68
2022/07/25 10:32:57;;;;;;;10.45;7.00;;;36.00;96.50;;;;;;5037654;28;20583;-68
2022/07/25 10:35:26;;;;;;;10.10;7.07;;;36.00;96.50;;;;;;5049475;28;20187;-68
2022/07/25 10:37:55;;;;;;;8.00;7.22;;;36.00;96.30;;;;;;5046243;28;20196;-68
2022/07/25 10:40:29;;;;;;;9.30;6.82;;;35.50;95.80;;;;;;5034226;28;20211;-68
2022/07/25 10:43:01;;;;;;;8.35;7.35;;;35.60;95.80;;;;;;5031692;28;20210;-68
2022/07/25 10:45:37;;;;;;;7.60;6.75;;;35.60;95.40;;;;;;5033830;28;20203;-68
2022/07/25 10:48:19;;;;;;;10.52;7.32;;;35.80;95.10;;;;;;5036104;28;20548;-68
2022/07/25 10:50:47;;;;;;;7.75;6.95;;;35.90;95.10;;;;;;5037976;28;20225;-68
2022/07/25 10:53:32;;;;;;;7.22;6.53;;;36.00;95.40;;;;;;5047409;28;20198;-68
2022/07/25 10:56:04;;;;;;;10.75;6.43;;;36.40;95.00;;;;;;5032163;28;20198;-67
2022/07/25 10:58:44;;;;;;;9.80;6.07;;;36.50;94.90;;;;;;5031836;28;20200;-68
2022/07/25 11:01:13;;;;;;;9.27;6.00;;;36.70;94.60;;;;;;5024857;28;20580;-67
2022/07/25 11:03:43;;;;;;;6.05;5.40;;;36.80;93.80;;;;;;5035780;28;20209;-67
2022/07/25 11:06:13;;;;;;;8.13;6.00;;;37.00;93.70;;;;;;5038971;28;20202;-68
2022/07/25 11:08:42;;;;;;;11.65;6.20;;;36.90;93.40;;;;;;5039314;28;20238;-69
2022/07/25 11:11:09;;;;;;;6.20;5.70;;;36.80;93.90;;;;;;5034113;28;20223;-68
2022/07/25 11:13:41;;;;;;;6.72;5.90;;;36.40;93.80;;;;;;5029495;28;20561;-68
2022/07/25 11:16:08;;;;;;;7.57;5.82;;;36.10;93.90;;;;;;5029958;28;20191;-68
2022/07/25 11:18:37;;;;;;;7.75;6.13;;;36.00;93.30;;;;;;5032397;28;20215;-68
2022/07/25 11:21:06;;;;;;;6.43;5.60;;;35.50;94.00;;;;;;5029469;28;20218;-68
2022/07/25 11:23:34;;;;;;;6.28;5.55;;;35.40;93.50;;;;;;5031317;28;20200;-68
2022/07/25 11:26:19;;;;;;;6.60;5.22;;;35.80;94.30;;;;;;5031954;28;20246;-69
2022/07/25 11:28:48;;;;;;;5.57;5.07;;;36.50;93.30;;;;;;5032784;28;20578;-69
2022/07/25 11:31:16;;;;;;;5.40;4.90;;;36.70;93.10;;;;;;5033377;28;20704;-68
2022/07/25 11:33:48;;;;;;;5.57;5.07;;;36.80;93.20;;;;;;5033837;28;20250;-67
2022/07/25 11:36:15;;;;;;;6.38;5.32;;;36.50;92.80;;;;;;5028379;28;20214;-67
2022/07/25 11:38:48;;;;;;;6.68;5.38;;;36.20;92.40;;;;;;5032377;28;20195;-67
2022/07/25 11:41:14;;;;;;;6.30;5.43;;;36.30;92.70;;;;;;5041051;28;20222;-67
2022/07/25 11:43:47;;;;;;;5.72;4.88;;;36.00;92.60;;;;;;5039086;28;20199;-67
2022/07/25 11:46:14;;;;;;;6.03;4.75;;;36.30;92.00;;;;;;5037082;28;20532;-68
2022/07/25 11:48:41;;;;;;;5.70;5.05;;;36.50;92.00;;;;;;5038836;28;20215;-68
2022/07/25 11:51:16;;;;;;;7.90;5.00;;;36.50;91.80;;;;;;5040662;28;20690;-68
2022/07/25 11:53:49;;;;;;;8.57;5.43;;;36.60;92.20;;;;;;5033928;28;20237;-68
2022/07/25 11:56:18;;;;;;;10.93;5.10;;;36.90;91.40;;;;;;5031665;28;20190;-68
2022/07/25 11:59:06;;;;;;;8.73;5.40;;;37.10;91.30;;;;;;5027005;28;20195;-68
2022/07/25 12:01:36;;;;;;;5.28;4.78;;;37.30;91.60;;;;;;5029410;28;20215;-68
2022/07/25 12:04:15;;;;;;;8.13;5.70;;;37.20;91.80;;;;;;5026490;28;20206;-69
2022/07/25 12:06:44;;;;;;;6.75;4.43;;;37.20;91.50;;;;;;5030643;28;20214;-68
2022/07/25 12:09:19;;;;;;;5.38;4.88;;;37.40;91.30;;;;;;5034141;28;20218;-69
2022/07/25 12:11:48;;;;;;;8.57;5.03;;;37.50;90.90;;;;;;5032505;28;20214;-69
2022/07/25 12:14:15;;;;;;;10.93;5.82;;;37.40;91.10;;;;;;5037525;28;20202;-68
2022/07/25 12:16:42;;;;;;;5.85;5.18;;;37.40;90.80;;;;;;5033342;28;20218;-68
2022/07/25 12:19:17;;;;;;;5.72;4.80;;;36.70;91.40;;;;;;5032257;28;20203;-67
2022/07/25 12:21:45;;;;;;;6.78;5.00;;;36.10;92.10;;;;;;5028985;28;20210;-67
2022/07/25 12:24:12;;;;;;;5.65;5.13;;;36.30;92.50;;;;;;5029698;28;20671;-67
2022/07/25 12:26:38;;;;;;;6.10;5.43;;;36.20;92.60;;;;;;5035808;28;20206;-68
2022/07/25 12:29:05;;;;;;;9.85;5.60;;;36.20;91.90;;;;;;5041076;28;20211;-68
2022/07/25 12:31:32;;;;;;;7.05;5.00;;;35.80;92.40;;;;;;5042228;28;20222;-67
2022/07/25 12:33:59;;;;;;;6.15;5.30;;;35.80;92.80;;;;;;5044472;28;20286;-68
2022/07/25 12:36:26;;;;;;;11.75;5.60;;;35.60;92.50;;;;;;5032404;28;20196;-68
2022/07/25 12:38:52;;;;;;;7.97;4.70;;;35.60;92.70;;;;;;5038325;28;20621;-67
2022/07/25 12:41:21;;;;;;;6.45;5.50;;;35.60;92.60;;;;;;5036316;28;20225;-67
2022/07/25 12:43:48;;;;;;;5.78;5.18;;;35.40;92.60;;;;;;5029754;28;20204;-67
2022/07/25 12:46:15;;;;;;;9.23;5.30;;;35.20;92.80;;;;;;5033159;28;20212;-68
2022/07/25 12:48:42;;;;;;;7.45;4.95;;;34.90;92.90;;;;;;5029510;28;20277;-68